createdAt,value
2017-08-12T00:02:23.562Z,66.30
2017-08-12T00:04:53.046Z,66.40
2017-08-12T00:07:23.102Z,66.80
2017-08-12T00:09:53.610Z,66.70
2017-08-12T00:12:23.382Z,66.70
2017-08-12T00:14:52.958Z,66.80
2017-08-12T00:17:22.750Z,67.00
2017-08-12T00:19:53.289Z,67.30
2017-08-12T00:22:23.198Z,66.90
2017-08-12T00:24:52.346Z,67.10
2017-08-12T00:27:23.021Z,67.20
2017-08-12T00:29:52.628Z,67.10
2017-08-12T00:32:22.242Z,66.80
2017-08-12T00:34:52.290Z,67.10
2017-08-12T00:37:22.689Z,66.80
2017-08-12T00:39:54.656Z,67.10
2017-08-12T00:42:26.062Z,67.00
2017-08-12T00:45:02.422Z,67.70
2017-08-12T00:47:44.629Z,67.10
2017-08-12T00:50:16.401Z,67.10
2017-08-12T00:52:46.310Z,66.80
2017-08-12T00:55:16.957Z,66.60
2017-08-12T00:57:46.902Z,66.90
2017-08-12T01:00:24.767Z,66.50
2017-08-12T01:02:54.403Z,66.90
2017-08-12T01:05:24.290Z,66.80
2017-08-12T01:07:53.969Z,66.90
2017-08-12T01:10:23.579Z,67.10
2017-08-12T01:12:53.513Z,67.20
2017-08-12T01:15:24.134Z,67.20
2017-08-12T01:17:54.177Z,67.20
2017-08-12T01:20:23.743Z,67.50
2017-08-12T01:22:54.333Z,67.30
2017-08-12T01:25:23.895Z,67.60
2017-08-12T01:27:54.182Z,67.20
2017-08-12T01:30:24.258Z,67.00
2017-08-12T01:32:55.386Z,67.90
2017-08-12T01:35:25.590Z,67.80
2017-08-12T01:37:55.074Z,67.60
2017-08-12T01:40:25.290Z,67.10
2017-08-12T01:42:54.945Z,67.30
2017-08-12T01:45:24.797Z,67.00
2017-08-12T01:47:55.029Z,66.80
2017-08-12T01:50:25.253Z,67.30
2017-08-12T01:52:55.329Z,66.80
2017-08-12T01:55:24.787Z,66.80
2017-08-12T01:57:54.693Z,66.90
2017-08-12T02:00:24.921Z,66.90
2017-08-12T02:02:55.191Z,67.00
2017-08-12T02:05:25.102Z,67.10
2017-08-12T02:07:55.398Z,67.30
2017-08-12T02:10:25.193Z,67.20
2017-08-12T02:12:55.537Z,67.50
2017-08-12T02:15:25.061Z,67.30
2017-08-12T02:17:54.673Z,67.30
2017-08-12T02:20:24.377Z,67.40
2017-08-12T02:22:55.082Z,67.30
2017-08-12T02:25:25.914Z,67.70
2017-08-12T02:27:55.521Z,67.70
2017-08-12T02:30:25.137Z,67.70
2017-08-12T02:32:55.655Z,67.30
2017-08-12T02:35:25.425Z,68.20
2017-08-12T02:37:55.544Z,68.10
2017-08-12T02:40:25.870Z,67.90
2017-08-12T02:42:55.658Z,68.30
2017-08-12T02:45:28.242Z,68.40
2017-08-12T02:47:57.853Z,68.70
2017-08-12T02:50:28.166Z,68.40
2017-08-12T02:52:58.540Z,68.50
2017-08-12T02:55:29.194Z,68.30
2017-08-12T02:57:59.209Z,68.40
2017-08-12T03:00:37.698Z,68.20
2017-08-12T03:03:18.955Z,67.90
2017-08-12T03:05:48.681Z,68.10
2017-08-12T03:08:18.610Z,68.10
2017-08-12T03:10:48.646Z,68.20
2017-08-12T03:13:19.202Z,68.00
2017-08-12T03:15:50.638Z,68.20
2017-08-12T03:18:21.481Z,67.80
2017-08-12T03:20:51.090Z,68.10
2017-08-12T03:23:21.009Z,68.20
2017-08-12T03:25:50.614Z,67.80
2017-08-12T03:28:21.145Z,67.70
2017-08-12T03:30:51.662Z,67.80
2017-08-12T03:33:21.713Z,67.50
2017-08-12T03:35:51.206Z,67.40
2017-08-12T03:38:20.802Z,67.40
2017-08-12T03:40:51.336Z,67.30
2017-08-12T03:43:20.937Z,67.50
2017-08-12T03:45:51.161Z,67.80
2017-08-12T03:48:21.394Z,67.60
2017-08-12T03:50:51.449Z,67.60
2017-08-12T03:53:22.149Z,67.90
2017-08-12T03:55:52.361Z,67.70
2017-08-12T03:58:21.973Z,68.00
2017-08-12T04:00:51.904Z,67.40
2017-08-12T04:03:21.397Z,67.90
2017-08-12T04:05:52.189Z,68.40
2017-08-12T04:08:21.766Z,68.20
2017-08-12T04:10:51.422Z,68.50
2017-08-12T04:13:21.894Z,68.20
2017-08-12T04:15:51.386Z,68.40
2017-08-12T04:21:07.649Z,68.10
2017-08-12T04:23:38.017Z,68.00
2017-08-12T04:26:09.023Z,68.60
2017-08-12T04:28:38.942Z,68.50
2017-08-12T04:31:09.161Z,68.50
2017-08-12T04:33:38.609Z,68.50
2017-08-12T04:38:52.941Z,68.70
2017-08-12T04:41:23.613Z,67.50
2017-08-12T04:43:53.616Z,68.10
2017-08-12T04:46:23.857Z,68.20
2017-08-12T04:48:53.631Z,68.00
2017-08-12T04:51:23.537Z,67.70
2017-08-12T04:53:53.416Z,67.50
2017-08-12T04:56:22.898Z,67.30
2017-08-12T04:58:53.114Z,66.40
2017-08-12T05:01:23.298Z,67.10
2017-08-12T05:03:53.381Z,65.60
2017-08-12T05:06:22.867Z,65.50
2017-08-12T05:08:52.844Z,64.80
2017-08-12T05:11:23.170Z,64.60
2017-08-12T05:13:53.833Z,65.00
2017-08-12T05:16:24.219Z,63.90
2017-08-12T05:18:54.595Z,65.20
2017-08-12T05:21:24.808Z,64.50
2017-08-12T05:23:54.856Z,64.50
2017-08-12T05:26:24.546Z,64.30
2017-08-12T05:28:54.569Z,64.40
2017-08-12T05:31:24.345Z,64.30
2017-08-12T05:33:54.857Z,64.10
2017-08-12T05:36:37.777Z,64.10
2017-08-12T05:39:07.558Z,64.00
2017-08-12T05:41:37.959Z,63.60
2017-08-12T05:44:07.935Z,62.80
2017-08-12T05:46:38.047Z,62.70
2017-08-12T05:49:08.022Z,62.60
2017-08-12T05:51:38.878Z,61.50
2017-08-12T05:54:17.257Z,61.70
2017-08-12T05:56:47.242Z,61.30
2017-08-12T05:59:23.702Z,61.00
2017-08-12T06:01:53.662Z,60.50
2017-08-12T06:04:24.730Z,60.40
2017-08-12T06:06:54.336Z,59.90
2017-08-12T06:09:24.097Z,60.00
2017-08-12T06:11:53.544Z,60.30
2017-08-12T06:14:23.593Z,59.80
2017-08-12T06:16:53.102Z,60.10
2017-08-12T06:19:23.021Z,59.50
2017-08-12T06:21:52.746Z,59.40
2017-08-12T06:24:22.386Z,59.20
2017-08-12T06:26:52.129Z,59.20
2017-08-12T06:29:21.878Z,58.70
2017-08-12T06:31:52.213Z,58.50
2017-08-12T06:34:22.277Z,58.90
2017-08-12T06:36:51.773Z,58.50
2017-08-12T06:39:21.392Z,58.80
2017-08-12T06:41:51.174Z,58.40
2017-08-12T06:44:21.681Z,58.10
2017-08-12T06:46:52.041Z,58.60
2017-08-12T06:49:22.580Z,58.70
2017-08-12T06:51:52.210Z,58.70
2017-08-12T06:54:22.709Z,58.60
2017-08-12T06:56:53.706Z,58.60
2017-08-12T06:59:24.211Z,59.00
2017-08-12T07:01:53.849Z,59.40
2017-08-12T07:04:23.473Z,59.20
2017-08-12T07:06:53.402Z,59.10
2017-08-12T07:09:24.218Z,59.80
2017-08-12T07:11:55.060Z,59.60
2017-08-12T07:14:24.650Z,59.60
2017-08-12T07:16:54.465Z,59.00
2017-08-12T07:19:24.405Z,59.30
2017-08-12T07:21:55.022Z,58.20
2017-08-12T07:24:24.638Z,57.60
2017-08-12T07:26:54.238Z,57.20
2017-08-12T07:29:23.842Z,57.20
2017-08-12T07:31:53.686Z,56.70
2017-08-12T07:34:23.370Z,56.40
2017-08-12T07:36:53.741Z,55.90
2017-08-12T07:39:24.176Z,54.40
2017-08-12T07:41:54.086Z,54.30
2017-08-12T07:44:23.794Z,54.00
2017-08-12T07:46:53.875Z,53.80
2017-08-12T07:49:24.058Z,52.90
2017-08-12T07:51:54.454Z,53.00
2017-08-12T07:54:26.480Z,53.00
2017-08-12T07:56:56.078Z,53.30
2017-08-12T07:59:26.522Z,51.80
2017-08-12T08:01:56.274Z,51.30
2017-08-12T08:04:26.239Z,50.80
2017-08-12T08:06:56.633Z,50.20
2017-08-12T08:09:26.510Z,50.50
2017-08-12T08:11:57.302Z,47.10
2017-08-12T08:14:27.710Z,47.40
2017-08-12T08:16:57.613Z,46.80
2017-08-12T08:19:27.961Z,47.30
2017-08-12T08:21:57.437Z,47.50
2017-08-12T08:24:27.208Z,47.00
2017-08-12T08:26:57.882Z,46.80
2017-08-12T08:29:27.813Z,46.00
2017-08-12T08:31:57.418Z,46.00
2017-08-12T08:34:27.642Z,45.80
2017-08-12T08:36:57.566Z,44.80
2017-08-12T08:39:28.461Z,45.10
2017-08-12T08:41:59.077Z,44.70
2017-08-12T08:44:28.686Z,44.30
2017-08-12T08:46:59.361Z,43.20
2017-08-12T08:49:29.735Z,43.40
2017-08-12T08:51:59.350Z,43.20
2017-08-12T08:54:39.431Z,43.00
2017-08-12T08:57:08.737Z,43.00
2017-08-12T08:59:38.509Z,43.80
2017-08-12T09:02:08.221Z,43.90
2017-08-12T09:04:38.602Z,44.40
2017-08-12T09:07:15.506Z,44.00
2017-08-12T09:09:45.093Z,43.60
2017-08-12T09:12:15.414Z,44.00
2017-08-12T09:14:46.597Z,44.20
2017-08-12T09:17:16.515Z,44.80
2017-08-12T09:19:47.421Z,44.40
2017-08-12T09:22:17.388Z,44.30
2017-08-12T09:24:46.829Z,43.80
2017-08-12T09:27:16.370Z,43.90
2017-08-12T09:29:46.818Z,41.80
2017-08-12T09:32:17.367Z,42.50
2017-08-12T09:34:46.954Z,42.50
2017-08-12T09:37:16.877Z,41.40
2017-08-12T09:39:46.801Z,41.20
2017-08-12T09:42:21.935Z,40.60
2017-08-12T09:44:51.252Z,40.10
2017-08-12T09:47:21.760Z,39.40
2017-08-12T09:49:51.578Z,39.30
2017-08-12T09:52:21.127Z,39.50
2017-08-12T09:54:50.890Z,38.20
2017-08-12T09:57:20.497Z,37.80
2017-08-12T09:59:51.025Z,37.80
2017-08-12T10:02:20.797Z,37.70
2017-08-12T10:04:51.621Z,38.80
2017-08-12T10:07:21.661Z,39.10
2017-08-12T10:09:52.370Z,38.10
2017-08-12T10:12:30.574Z,39.10
2017-08-12T10:15:14.890Z,39.00
2017-08-12T10:17:44.577Z,39.50
2017-08-12T10:20:18.558Z,39.60
2017-08-12T10:22:48.393Z,38.80
2017-08-12T10:25:19.666Z,39.40
2017-08-12T10:27:50.660Z,39.40
2017-08-12T10:30:20.574Z,39.10
2017-08-12T10:32:50.529Z,38.60
2017-08-12T10:35:20.505Z,38.70
2017-08-12T10:37:49.959Z,37.50
2017-08-12T10:40:19.887Z,37.40
2017-08-12T10:42:49.673Z,36.30
2017-08-12T10:45:20.542Z,37.50
2017-08-12T10:47:50.602Z,37.50
2017-08-12T10:50:20.531Z,38.60
2017-08-12T10:52:50.153Z,39.20
2017-08-12T10:55:20.817Z,40.20
2017-08-12T10:57:50.954Z,40.20
2017-08-12T11:00:23.906Z,40.40
2017-08-12T11:02:54.318Z,40.40
2017-08-12T11:05:24.913Z,40.00
2017-08-12T11:07:55.762Z,39.80
2017-08-12T11:10:26.318Z,39.80
2017-08-12T11:12:56.642Z,39.40
2017-08-12T11:15:26.274Z,39.30
2017-08-12T11:17:56.409Z,39.70
2017-08-12T11:20:26.260Z,39.80
2017-08-12T11:22:56.623Z,39.10
2017-08-12T11:25:27.177Z,37.80
2017-08-12T11:27:57.866Z,38.20
2017-08-12T11:30:27.466Z,38.10
2017-08-12T11:32:58.454Z,37.60
2017-08-12T11:35:29.139Z,37.10
2017-08-12T11:37:59.504Z,37.10
2017-08-12T11:40:30.197Z,36.60
2017-08-12T11:42:59.953Z,36.60
2017-08-12T11:45:30.049Z,36.40
2017-08-12T11:48:00.097Z,36.10
2017-08-12T11:50:30.014Z,36.60
2017-08-12T11:53:00.682Z,35.90
2017-08-12T11:55:30.454Z,35.60
2017-08-12T11:58:01.287Z,36.00
2017-08-12T12:00:31.337Z,36.00
2017-08-12T12:03:01.126Z,35.70
2017-08-12T12:05:31.543Z,35.80
2017-08-12T12:08:01.634Z,35.60
2017-08-12T12:10:31.629Z,35.70
2017-08-12T12:13:01.417Z,36.50
2017-08-12T12:15:32.234Z,36.80
2017-08-12T12:18:02.672Z,36.80
2017-08-12T12:20:36.729Z,36.30
2017-08-12T12:23:07.194Z,35.70
2017-08-12T12:25:37.262Z,36.00
2017-08-12T12:28:07.046Z,36.00
2017-08-12T12:30:37.560Z,36.00
2017-08-12T12:33:08.100Z,35.60
2017-08-12T12:35:38.009Z,35.70
2017-08-12T12:38:07.630Z,35.70
2017-08-12T12:40:37.997Z,36.40
2017-08-12T12:43:08.061Z,36.60
2017-08-12T12:45:38.321Z,36.90
2017-08-12T12:51:00.257Z,38.40
2017-08-12T12:53:29.843Z,37.50
2017-08-12T12:55:59.762Z,36.10
2017-08-12T12:58:30.250Z,36.40
2017-08-12T13:01:02.373Z,36.80
2017-08-12T13:03:32.749Z,36.70
2017-08-12T13:06:03.627Z,37.90
2017-08-12T13:08:39.626Z,37.70
2017-08-12T13:11:11.449Z,37.30
2017-08-12T13:13:41.429Z,37.00
2017-08-12T13:16:11.571Z,37.80
2017-08-12T13:18:41.298Z,37.00
2017-08-12T13:21:11.354Z,37.40
2017-08-12T13:23:41.118Z,36.80
2017-08-12T13:26:10.864Z,36.80
2017-08-12T13:28:41.226Z,36.90
2017-08-12T13:31:11.074Z,37.10
2017-08-12T13:33:40.882Z,37.30
2017-08-12T13:36:21.881Z,37.00
2017-08-12T13:38:52.379Z,37.60
2017-08-12T13:41:23.741Z,36.80
2017-08-12T13:43:54.278Z,38.00
2017-08-12T13:46:24.001Z,37.30
2017-08-12T13:48:58.697Z,37.30
2017-08-12T13:51:28.008Z,37.90
2017-08-12T13:53:57.761Z,37.90
2017-08-12T13:56:28.306Z,37.70
2017-08-12T13:58:58.840Z,37.10
2017-08-12T14:01:28.481Z,37.30
2017-08-12T14:03:59.117Z,37.60
2017-08-12T14:06:29.046Z,37.50
2017-08-12T14:08:59.219Z,38.40
2017-08-12T14:11:29.445Z,38.20
2017-08-12T14:14:00.006Z,39.20
2017-08-12T14:16:29.618Z,38.10
2017-08-12T14:18:59.069Z,38.50
2017-08-12T14:21:29.010Z,39.20
2017-08-12T14:23:58.721Z,39.70
2017-08-12T14:26:29.422Z,40.40
2017-08-12T14:28:59.463Z,39.70
2017-08-12T14:31:29.114Z,40.50
2017-08-12T14:33:59.154Z,40.70
2017-08-12T14:36:32.346Z,40.50
2017-08-12T14:39:02.493Z,40.50
2017-08-12T14:41:32.176Z,40.80
2017-08-12T14:44:01.646Z,41.30
2017-08-12T14:46:32.129Z,41.40
2017-08-12T14:49:02.342Z,41.40
2017-08-12T14:51:32.265Z,42.00
2017-08-12T14:54:02.309Z,42.40
2017-08-12T14:56:36.773Z,43.10
2017-08-12T14:59:07.552Z,43.10
2017-08-12T15:01:41.316Z,43.50
2017-08-12T15:04:10.914Z,43.70
2017-08-12T15:06:41.337Z,44.10
2017-08-12T15:09:11.357Z,44.00
2017-08-12T15:11:41.890Z,45.70
2017-08-12T15:14:12.121Z,44.50
2017-08-12T15:16:42.177Z,44.80
2017-08-12T15:19:11.792Z,43.90
2017-08-12T15:21:41.394Z,44.50
2017-08-12T15:24:11.430Z,44.60
2017-08-12T15:26:56.210Z,44.90
2017-08-12T15:32:05.198Z,45.70
2017-08-12T15:34:45.614Z,46.00
2017-08-12T15:37:20.273Z,46.20
2017-08-12T15:39:54.701Z,46.10
2017-08-12T15:42:29.294Z,46.40
2017-08-12T15:47:45.662Z,47.60
2017-08-12T15:50:20.981Z,48.50
2017-08-12T15:52:55.621Z,48.40
2017-08-12T15:55:30.171Z,48.80
2017-08-12T15:58:04.782Z,48.70
2017-08-12T16:00:39.326Z,49.10
2017-08-12T16:03:13.815Z,49.90
2017-08-12T16:05:48.363Z,50.40
2017-08-12T16:08:23.000Z,50.60
2017-08-12T16:10:57.574Z,50.80
2017-08-12T16:13:32.093Z,50.90
2017-08-12T16:16:06.697Z,50.80
2017-08-12T16:18:41.249Z,50.80
2017-08-12T16:21:15.782Z,51.10
2017-08-12T16:23:50.332Z,51.40
2017-08-12T16:26:24.950Z,51.00
2017-08-12T16:28:59.477Z,51.30
2017-08-12T16:31:34.073Z,51.10
2017-08-12T16:34:08.554Z,51.60
2017-08-12T16:36:43.938Z,51.10
2017-08-12T16:39:18.505Z,51.10
2017-08-12T16:41:53.181Z,51.00
2017-08-12T16:44:28.438Z,51.10
2017-08-12T16:47:03.083Z,51.10
2017-08-12T16:49:37.743Z,51.70
2017-08-12T16:52:12.388Z,51.90
2017-08-12T16:54:47.685Z,52.70
2017-08-12T16:57:22.190Z,52.10
2017-08-12T16:59:56.877Z,52.20
2017-08-12T17:02:31.527Z,52.40
2017-08-12T17:05:14.721Z,52.30
2017-08-12T17:07:49.263Z,52.70
2017-08-12T17:10:23.924Z,53.10
2017-08-12T17:12:58.503Z,53.10
2017-08-12T17:15:33.350Z,53.10
2017-08-12T17:18:07.784Z,53.30
2017-08-12T17:20:43.138Z,53.60
2017-08-12T17:23:17.621Z,53.60
2017-08-12T17:25:52.197Z,53.90
2017-08-12T17:31:11.345Z,53.70
2017-08-12T17:33:45.825Z,54.10
2017-08-12T17:36:20.414Z,54.20
2017-08-12T17:38:55.006Z,54.30
2017-08-12T17:41:30.365Z,54.20
2017-08-12T17:44:04.923Z,54.20
2017-08-12T17:46:39.552Z,54.40
2017-08-12T17:49:14.202Z,54.50
2017-08-12T17:51:48.746Z,54.70
2017-08-12T17:54:23.362Z,54.80
2017-08-12T17:56:57.914Z,54.80
2017-08-12T17:59:32.357Z,55.20
2017-08-12T18:02:06.929Z,55.00
2017-08-12T18:04:41.367Z,55.50
2017-08-12T18:07:16.320Z,55.50
2017-08-12T18:09:50.954Z,55.70
2017-08-12T18:12:26.193Z,56.10
2017-08-12T18:15:00.845Z,56.00
2017-08-12T18:17:35.465Z,56.20
2017-08-12T18:20:16.790Z,56.30
2017-08-12T18:22:51.413Z,56.40
2017-08-12T18:25:25.977Z,56.50
2017-08-12T18:28:00.605Z,56.50
2017-08-12T18:30:35.157Z,55.90
2017-08-12T18:33:09.724Z,55.80
2017-08-12T18:35:44.333Z,56.00
2017-08-12T18:38:19.045Z,56.10
2017-08-12T18:40:53.675Z,55.90
2017-08-12T18:43:28.230Z,55.70
2017-08-12T18:46:02.845Z,56.10
2017-08-12T18:48:37.334Z,56.00
2017-08-12T18:51:11.962Z,56.30
2017-08-12T18:53:46.447Z,55.80
2017-08-12T18:56:21.069Z,55.90
2017-08-12T18:58:55.632Z,55.60
2017-08-12T19:01:30.316Z,55.30
2017-08-12T19:04:05.012Z,55.40
2017-08-12T19:06:39.529Z,55.20
2017-08-12T19:09:14.007Z,55.00
2017-08-12T19:11:48.626Z,55.20
2017-08-12T19:14:23.853Z,54.90
2017-08-12T19:16:58.454Z,55.60
2017-08-12T19:19:32.957Z,55.30
2017-08-12T19:22:07.522Z,55.50
2017-08-12T19:24:42.095Z,55.40
2017-08-12T19:27:16.541Z,55.40
2017-08-12T19:29:51.003Z,55.50
2017-08-12T19:32:25.557Z,55.50
2017-08-12T19:35:00.043Z,55.70
2017-08-12T19:37:34.669Z,55.70
2017-08-12T19:40:15.870Z,55.80
2017-08-12T19:42:50.301Z,55.90
2017-08-12T19:45:24.859Z,56.00
2017-08-12T19:47:59.358Z,55.90
2017-08-12T19:50:33.881Z,56.30
2017-08-12T19:53:08.381Z,56.60
2017-08-12T19:55:42.998Z,56.70
2017-08-12T19:58:17.538Z,56.70
2017-08-12T20:00:52.079Z,56.80
2017-08-12T20:03:26.645Z,56.90
2017-08-12T20:06:01.314Z,56.90
2017-08-12T20:08:35.797Z,57.00
2017-08-12T20:11:10.450Z,57.20
2017-08-12T20:13:45.608Z,57.00
2017-08-12T20:16:20.269Z,57.40
2017-08-12T20:18:54.790Z,57.80
2017-08-12T20:21:29.321Z,57.80
2017-08-12T20:24:04.710Z,58.20
2017-08-12T20:26:39.214Z,58.10
2017-08-12T20:29:13.701Z,58.10
2017-08-12T20:31:48.471Z,58.10
2017-08-12T20:34:22.925Z,58.10
2017-08-12T20:36:57.473Z,58.20
2017-08-12T20:39:31.957Z,58.40
2017-08-12T20:42:06.653Z,58.60
2017-08-12T20:44:41.221Z,59.00
2017-08-12T20:47:15.788Z,59.10
2017-08-12T20:49:50.237Z,59.40
2017-08-12T20:52:24.898Z,59.30
2017-08-12T20:54:59.442Z,59.30
2017-08-12T20:57:34.038Z,59.70
2017-08-12T21:00:15.598Z,59.80
2017-08-12T21:02:50.067Z,60.00
2017-08-12T21:05:25.377Z,60.40
2017-08-12T21:08:00.006Z,60.30
2017-08-12T21:10:34.611Z,60.70
2017-08-12T21:13:09.051Z,60.90
2017-08-12T21:15:43.694Z,61.40
2017-08-12T21:18:18.109Z,61.60
2017-08-12T21:20:52.729Z,61.70
2017-08-12T21:23:27.163Z,61.80
2017-08-12T21:26:01.799Z,62.20
2017-08-12T21:28:36.433Z,62.30
2017-08-12T21:31:11.009Z,62.50
2017-08-12T21:33:45.706Z,62.90
2017-08-12T21:36:20.296Z,62.70
2017-08-12T21:38:54.783Z,62.90
2017-08-12T21:41:29.358Z,63.10
2017-08-12T21:44:04.975Z,63.60
2017-08-12T21:46:39.522Z,63.50
2017-08-12T21:49:13.977Z,63.70
2017-08-12T21:51:48.529Z,63.80
2017-08-12T21:54:22.974Z,63.90
2017-08-12T21:56:57.433Z,63.70
2017-08-12T21:59:32.060Z,63.60
2017-08-12T22:02:06.693Z,63.80
2017-08-12T22:04:41.033Z,63.50
2017-08-12T22:07:15.598Z,63.70
2017-08-12T22:09:50.070Z,63.70
2017-08-12T22:12:24.723Z,63.80
2017-08-12T22:14:59.318Z,63.70
2017-08-12T22:17:33.890Z,63.70
2017-08-12T22:20:15.880Z,64.00
2017-08-12T22:22:50.510Z,64.00
2017-08-12T22:25:25.052Z,64.30
2017-08-12T22:27:59.673Z,64.30
2017-08-12T22:30:34.222Z,64.70
2017-08-12T22:33:08.822Z,64.80
2017-08-12T22:35:43.408Z,64.80
2017-08-12T22:38:17.992Z,64.60
2017-08-12T22:40:52.569Z,64.80
2017-08-12T22:43:27.301Z,65.00
2017-08-12T22:46:01.969Z,65.10
2017-08-12T22:48:37.417Z,65.20
2017-08-12T22:51:12.833Z,65.30
2017-08-12T22:53:47.418Z,65.20
2017-08-12T22:56:21.989Z,65.30
2017-08-12T22:58:56.594Z,65.50
2017-08-12T23:01:31.161Z,65.70
2017-08-12T23:04:05.693Z,65.50
2017-08-12T23:06:40.290Z,65.90
2017-08-12T23:09:14.907Z,65.80
2017-08-12T23:11:49.456Z,65.70
2017-08-12T23:14:24.566Z,66.00
2017-08-12T23:16:59.174Z,66.20
2017-08-12T23:19:34.414Z,66.20
2017-08-12T23:22:08.932Z,66.20
2017-08-12T23:24:43.602Z,66.30
2017-08-12T23:27:18.349Z,66.40
2017-08-12T23:29:53.003Z,66.60
2017-08-12T23:32:27.649Z,66.80
2017-08-12T23:37:42.117Z,67.10
2017-08-12T23:40:16.763Z,67.00
2017-08-12T23:42:51.310Z,67.20
2017-08-12T23:45:25.878Z,67.10
2017-08-12T23:48:00.335Z,67.20
2017-08-12T23:50:35.017Z,67.10
2017-08-12T23:53:09.501Z,66.80
2017-08-12T23:55:44.065Z,67.00
2017-08-12T23:58:18.550Z,66.80
